createdAt,value
2018-09-20T00:02:59.803Z,8.3
2018-09-20T00:06:00.228Z,7.8
2018-09-20T00:08:59.879Z,7.8
2018-09-20T00:12:00.377Z,7.3
2018-09-20T00:14:59.819Z,7.5
2018-09-20T00:18:00.215Z,7.9
2018-09-20T00:20:59.870Z,7.8
2018-09-20T00:24:00.786Z,7.7
2018-09-20T00:27:00.143Z,7.8
2018-09-20T00:29:59.942Z,7.4
2018-09-20T00:32:59.973Z,6.8
2018-09-20T00:36:00.072Z,7.2
2018-09-20T00:39:00.129Z,7.6
2018-09-20T00:41:59.803Z,7.2
2018-09-20T00:44:59.918Z,7
2018-09-20T00:47:59.740Z,7
2018-09-20T00:51:00.377Z,6.8
2018-09-20T00:54:00.795Z,6.8
2018-09-20T00:56:59.839Z,7
2018-09-20T01:00:00.275Z,6.9
2018-09-20T01:02:59.838Z,6.4
2018-09-20T01:05:59.748Z,6.2
2018-09-20T01:08:59.859Z,6.6
2018-09-20T01:11:59.864Z,6.7
2018-09-20T01:15:00.073Z,6.4
2018-09-20T01:18:00.024Z,6.1
2018-09-20T01:20:59.780Z,6.4
2018-09-20T01:23:59.775Z,6.4
2018-09-20T01:26:59.869Z,6.5
2018-09-20T01:30:00.101Z,6.5
2018-09-20T01:32:59.862Z,6.8
2018-09-20T01:35:59.825Z,6.9
2018-09-20T01:38:59.765Z,6.4
2018-09-20T01:41:59.808Z,6.6
2018-09-20T01:44:59.885Z,6.3
2018-09-20T01:48:00.053Z,6.3
2018-09-20T01:50:59.749Z,6.1
2018-09-20T01:54:00.132Z,6.3
2018-09-20T01:57:00.076Z,6.3
2018-09-20T02:00:00.027Z,6.2
2018-09-20T02:02:59.800Z,6.5
2018-09-20T02:05:59.764Z,6.5
2018-09-20T02:08:59.840Z,5.8
2018-09-20T02:11:59.962Z,5.8
2018-09-20T02:15:00.014Z,6.2
2018-09-20T02:17:59.861Z,5.9
2018-09-20T02:20:59.878Z,5.8
2018-09-20T02:24:00.177Z,5.5
2018-09-20T02:27:00.088Z,5.3
2018-09-20T02:29:59.810Z,5.7
2018-09-20T02:32:59.872Z,5.3
2018-09-20T02:35:59.790Z,5.6
2018-09-20T02:38:59.934Z,5.8
2018-09-20T02:41:59.885Z,5.4
2018-09-20T02:44:59.826Z,5.2
2018-09-20T02:47:59.843Z,5.3
2018-09-20T02:50:59.847Z,5
2018-09-20T02:54:00.312Z,5.2
2018-09-20T02:56:59.783Z,5.4
2018-09-20T02:59:59.847Z,5.3
2018-09-20T03:03:00.117Z,5.5
2018-09-20T03:05:59.953Z,5.4
2018-09-20T03:08:59.917Z,5.3
2018-09-20T03:12:00.092Z,5.8
2018-09-20T03:14:59.813Z,5.3
2018-09-20T03:17:59.928Z,5.4
2018-09-20T03:20:59.931Z,5.3
2018-09-20T03:23:59.957Z,5
2018-09-20T03:26:59.968Z,5.2
2018-09-20T03:30:00.021Z,5.2
2018-09-20T03:32:59.828Z,5.1
2018-09-20T03:35:59.897Z,5
2018-09-20T03:39:00.108Z,5.4
2018-09-20T03:41:59.961Z,5.4
2018-09-20T03:44:59.953Z,5
2018-09-20T03:47:59.746Z,5
2018-09-20T03:50:59.979Z,5.5
2018-09-20T03:53:59.798Z,5.6
2018-09-20T03:56:59.840Z,5.3
2018-09-20T03:59:59.814Z,5.7
2018-09-20T04:02:59.910Z,5.8
2018-09-20T04:05:59.837Z,5.3
2018-09-20T04:08:59.956Z,5
2018-09-20T04:12:00.188Z,4.7
2018-09-20T04:15:00.110Z,4.7
2018-09-20T04:18:00.083Z,4.9
2018-09-20T04:20:59.979Z,4.8
2018-09-20T04:23:59.878Z,4.6
2018-09-20T04:26:59.940Z,4.4
2018-09-20T04:30:00.077Z,4.3
2018-09-20T04:32:59.957Z,4.3
2018-09-20T04:35:59.964Z,4.3
2018-09-20T04:38:59.852Z,4.5
2018-09-20T04:41:59.791Z,4.7
2018-09-20T04:44:59.753Z,4.6
2018-09-20T04:48:00.099Z,4.5
2018-09-20T04:50:59.806Z,4.6
2018-09-20T04:54:00.012Z,4.7
2018-09-20T04:56:59.752Z,4.6
2018-09-20T05:00:01.160Z,4.6
2018-09-20T05:02:59.813Z,5
2018-09-20T05:05:59.858Z,4.8
2018-09-20T05:08:59.699Z,4.6
2018-09-20T05:11:59.848Z,4.3
2018-09-20T05:14:59.818Z,4.3
2018-09-20T05:17:59.754Z,4.2
2018-09-20T05:20:59.893Z,4.3
2018-09-20T05:23:59.709Z,4.3
2018-09-20T05:26:59.790Z,4.3
2018-09-20T05:29:59.775Z,4.4
2018-09-20T05:32:59.919Z,4.4
2018-09-20T05:35:59.667Z,4.4
2018-09-20T05:39:00.179Z,4.3
2018-09-20T05:41:59.820Z,4.1
2018-09-20T05:44:59.793Z,4.1
2018-09-20T05:47:59.888Z,4.1
2018-09-20T05:50:59.921Z,4.2
2018-09-20T05:53:59.589Z,4
2018-09-20T05:56:59.609Z,4.1
2018-09-20T05:59:59.890Z,4.1
2018-09-20T06:02:59.952Z,4.2
2018-09-20T06:06:01.408Z,4.1
2018-09-20T06:08:59.856Z,4.2
2018-09-20T06:11:59.865Z,4.1
2018-09-20T06:14:59.986Z,4.2
2018-09-20T06:17:59.907Z,6.8
2018-09-20T06:20:59.912Z,8.9
2018-09-20T06:23:59.633Z,10
2018-09-20T06:26:59.802Z,11.5
2018-09-20T06:29:59.733Z,10.4
2018-09-20T06:32:59.757Z,11
2018-09-20T06:35:59.958Z,10.2
2018-09-20T06:38:59.722Z,10.3
2018-09-20T06:41:59.808Z,10.7
2018-09-20T06:44:59.617Z,15.8
2018-09-20T06:47:59.638Z,15.7
2018-09-20T06:50:59.710Z,13.7
2018-09-20T06:53:59.842Z,14.8
2018-09-20T06:57:00.236Z,15.2
2018-09-20T06:59:59.577Z,13.8
2018-09-20T07:03:01.316Z,12.5
2018-09-20T07:05:59.728Z,12.1
2018-09-20T07:08:59.696Z,11.9
2018-09-20T07:11:59.929Z,10.8
2018-09-20T07:14:59.819Z,10.9
2018-09-20T07:17:59.596Z,11.2
2018-09-20T07:20:59.695Z,10.5
2018-09-20T07:24:00.277Z,10.5
2018-09-20T07:26:59.800Z,10.6
2018-09-20T07:29:59.806Z,10.2
2018-09-20T07:32:59.926Z,9.1
2018-09-20T07:35:59.754Z,9.5
2018-09-20T07:38:59.706Z,9.4
2018-09-20T07:41:59.780Z,10.5
2018-09-20T07:44:59.741Z,9
2018-09-20T07:47:59.828Z,8.9
2018-09-20T07:50:59.951Z,10.4
2018-09-20T07:53:59.599Z,11.4
2018-09-20T07:56:59.696Z,11.2
2018-09-20T07:59:59.941Z,9.1
2018-09-20T08:02:59.634Z,11
2018-09-20T08:06:00.097Z,10.6
2018-09-20T08:08:59.516Z,11.6
2018-09-20T08:11:59.941Z,10.7
2018-09-20T08:14:59.668Z,10.7
2018-09-20T08:17:59.841Z,11
2018-09-20T08:20:59.659Z,12.3
2018-09-20T08:24:00.034Z,11.2
2018-09-20T08:26:59.696Z,10
2018-09-20T08:30:00.058Z,9.7
2018-09-20T08:32:59.719Z,11
2018-09-20T08:35:59.801Z,13.2
2018-09-20T08:38:59.822Z,11.2
2018-09-20T08:41:59.714Z,11
2018-09-20T08:44:59.877Z,12.3
2018-09-20T08:47:59.709Z,11.5
2018-09-20T08:51:01.006Z,11.4
2018-09-20T08:53:59.581Z,10.9
2018-09-20T08:57:01.140Z,10.1
2018-09-20T08:59:59.549Z,16
2018-09-20T09:02:59.863Z,17.9
2018-09-20T09:05:59.688Z,15.1
2018-09-20T09:08:59.553Z,15.3
2018-09-20T09:12:01.244Z,12.4
2018-09-20T09:14:59.834Z,11.4
2018-09-20T09:17:59.628Z,12.5
2018-09-20T09:20:59.795Z,13.3
2018-09-20T09:24:00.133Z,14.1
2018-09-20T09:26:59.760Z,12.5
2018-09-20T09:29:59.799Z,11.7
2018-09-20T09:32:59.661Z,12.4
2018-09-20T09:35:59.781Z,12.7
2018-09-20T09:38:59.619Z,13.2
2018-09-20T09:41:59.974Z,12.4
2018-09-20T09:45:00.098Z,10.8
2018-09-20T09:48:00.880Z,11.4
2018-09-20T09:50:59.880Z,11.1
2018-09-20T09:53:59.817Z,9.4
2018-09-20T09:56:59.815Z,9
2018-09-20T09:59:59.994Z,10.2
2018-09-20T10:03:00.216Z,10
2018-09-20T10:05:59.678Z,9.6
2018-09-20T10:09:00.059Z,9.7
2018-09-20T10:11:59.646Z,11.8
2018-09-20T10:14:59.905Z,10.4
2018-09-20T10:17:59.626Z,10.2
2018-09-20T10:20:59.522Z,10.2
2018-09-20T10:24:00.870Z,10.9
2018-09-20T10:26:59.704Z,10.5
2018-09-20T10:29:59.754Z,10.2
2018-09-20T10:32:59.835Z,11.1
2018-09-20T10:35:59.658Z,9.6
2018-09-20T10:38:59.910Z,8.3
2018-09-20T10:41:59.576Z,8.7
2018-09-20T10:44:59.637Z,10.1
2018-09-20T10:47:59.533Z,10
2018-09-20T10:51:00.333Z,9.3
2018-09-20T10:54:00.056Z,8.6
2018-09-20T10:56:59.991Z,9.5
2018-09-20T10:59:59.887Z,8.7
2018-09-20T11:03:01.521Z,9.5
2018-09-20T11:05:59.963Z,8.4
2018-09-20T11:08:59.879Z,8.3
2018-09-20T11:11:59.672Z,8.3
2018-09-20T11:14:59.905Z,7.3
2018-09-20T11:17:59.801Z,7.1
2018-09-20T11:20:59.581Z,7.3
2018-09-20T11:23:59.968Z,8.1
2018-09-20T11:26:59.979Z,7.3
2018-09-20T11:29:59.673Z,6.5
2018-09-20T11:32:59.565Z,6.6
2018-09-20T11:35:59.963Z,6.7
2018-09-20T11:38:59.589Z,7.1
2018-09-20T11:41:59.544Z,6.7
2018-09-20T11:44:59.775Z,6.7
2018-09-20T11:47:59.448Z,7.1
2018-09-20T11:50:59.627Z,6.9
2018-09-20T11:53:59.564Z,6
2018-09-20T11:56:59.665Z,6.9
2018-09-20T11:59:59.887Z,7.8
2018-09-20T12:02:59.718Z,8.3
2018-09-20T12:05:59.666Z,7.3
2018-09-20T12:08:59.708Z,7.3
2018-09-20T12:11:59.592Z,7.8
2018-09-20T12:14:59.672Z,7.1
2018-09-20T12:17:59.823Z,6.7
2018-09-20T12:20:59.847Z,8.2
2018-09-20T12:23:59.658Z,7
2018-09-20T12:26:59.801Z,6.9
2018-09-20T12:29:59.823Z,7.6
2018-09-20T12:32:59.792Z,7.7
2018-09-20T12:36:01.065Z,7.8
2018-09-20T12:38:59.618Z,7
2018-09-20T12:41:59.502Z,6.9
2018-09-20T12:44:59.656Z,6.1
2018-09-20T12:47:59.796Z,7.6
2018-09-20T12:50:59.858Z,7
2018-09-20T13:23:14.050Z,5.9
2018-09-20T13:26:13.623Z,6.6
2018-09-20T13:29:13.924Z,5.9
2018-09-20T13:32:13.594Z,6.5
2018-09-20T13:35:13.753Z,6.1
2018-09-20T13:38:13.697Z,5.7
2018-09-20T13:41:13.815Z,5.3
2018-09-20T13:44:13.710Z,5.9
2018-09-20T13:47:13.861Z,5.5
2018-09-20T13:50:13.630Z,5.2
2018-09-20T13:53:13.834Z,5.8
2018-09-20T13:56:13.761Z,5.5
2018-09-20T13:59:13.611Z,5
2018-09-20T14:02:13.523Z,5.2
2018-09-20T14:05:13.749Z,5.1
2018-09-20T14:08:13.750Z,5.1
2018-09-20T14:11:13.576Z,5.6
2018-09-20T14:14:13.878Z,5
2018-09-20T14:17:13.786Z,5.6
2018-09-20T14:20:13.722Z,5
2018-09-20T14:23:13.640Z,4.7
2018-09-20T14:26:13.772Z,4.8
2018-09-20T14:29:13.776Z,5
2018-09-20T14:32:13.701Z,5.3
2018-09-20T14:35:13.536Z,6.5
2018-09-20T14:38:13.602Z,5.6
2018-09-20T14:41:13.833Z,6.1
2018-09-20T14:44:13.485Z,6.4
2018-09-20T14:47:13.801Z,6
2018-09-20T14:50:13.720Z,5.8
2018-09-20T14:53:13.709Z,5.3
2018-09-20T14:56:13.552Z,5.9
2018-09-20T14:59:13.851Z,8.3
2018-09-20T15:02:14.698Z,9.1
2018-09-20T15:05:13.770Z,9.8
2018-09-20T15:08:15.340Z,8.2
2018-09-20T15:11:13.698Z,8.2
2018-09-20T15:14:13.789Z,8.2
2018-09-20T15:17:13.906Z,7.1
2018-09-20T15:20:13.815Z,7.1
2018-09-20T15:23:13.602Z,6.9
2018-09-20T15:26:13.624Z,6.9
2018-09-20T15:29:13.866Z,6.7
2018-09-20T15:32:13.692Z,5.6
2018-09-20T15:35:13.735Z,5.6
2018-09-20T15:38:13.737Z,5.8
2018-09-20T15:41:13.612Z,5.5
2018-09-20T15:44:13.753Z,5.5
2018-09-20T15:47:14.113Z,5.9
2018-09-20T15:50:13.680Z,5.6
2018-09-20T15:53:13.493Z,6.4
2018-09-20T15:56:13.598Z,5.8
2018-09-20T15:59:13.579Z,4.9
2018-09-20T16:02:13.545Z,5.9
2018-09-20T16:05:13.528Z,5.5
2018-09-20T16:08:13.486Z,5.2
2018-09-20T16:11:13.749Z,5.5
2018-09-20T16:14:13.401Z,4.8
2018-09-20T16:17:13.754Z,4.4
2018-09-20T16:20:13.919Z,4.6
2018-09-20T16:23:13.851Z,4.2
2018-09-20T16:26:13.764Z,4.6
2018-09-20T16:29:14.053Z,4.4
2018-09-20T16:32:13.570Z,4.4
2018-09-20T16:35:13.777Z,4.1
2018-09-20T16:38:13.711Z,4.5
2018-09-20T16:41:13.566Z,5.1
2018-09-20T16:44:13.787Z,4.5
2018-09-20T16:47:13.696Z,4.2
2018-09-20T16:50:13.703Z,4.3
2018-09-20T16:53:15.914Z,3.9
2018-09-20T16:56:13.573Z,3.8
2018-09-20T16:59:13.801Z,3.6
2018-09-20T17:02:13.581Z,3.8
2018-09-20T17:05:15.284Z,4.1
2018-09-20T17:08:13.525Z,4.1
2018-09-20T17:11:13.584Z,4.3
2018-09-20T17:14:13.803Z,4.1
2018-09-20T17:17:13.879Z,3.9
2018-09-20T17:20:13.549Z,4
2018-09-20T17:23:13.692Z,4.1
2018-09-20T17:26:13.725Z,4.1
2018-09-20T17:29:13.614Z,4
2018-09-20T17:32:13.434Z,3.9
2018-09-20T17:35:13.713Z,3.8
2018-09-20T17:38:13.592Z,3.6
2018-09-20T17:41:13.550Z,3.5
2018-09-20T17:44:13.691Z,3.6
2018-09-20T17:47:13.500Z,3.8
2018-09-20T17:50:13.799Z,3.6
2018-09-20T17:53:13.746Z,3.6
2018-09-20T17:56:13.494Z,3.7
2018-09-20T17:59:13.775Z,3.6
2018-09-20T18:02:13.469Z,3.6
2018-09-20T18:05:13.433Z,3.6
2018-09-20T18:08:13.649Z,3.5
2018-09-20T18:11:13.464Z,3.4
2018-09-20T18:14:13.601Z,3.4
2018-09-20T18:17:13.753Z,3.5
2018-09-20T18:20:13.644Z,3.6
2018-09-20T18:23:13.579Z,3.5
2018-09-20T18:26:13.491Z,3.4
2018-09-20T18:29:13.576Z,3.4
2018-09-20T18:32:13.844Z,3.4
2018-09-20T18:35:13.701Z,3.5
2018-09-20T18:38:13.364Z,3.5
2018-09-20T18:41:13.538Z,3.3
2018-09-20T18:44:13.906Z,3.3
2018-09-20T18:47:13.901Z,3.4
2018-09-20T18:50:13.586Z,3.7
2018-09-20T18:53:13.560Z,3.4
2018-09-20T18:56:13.609Z,3.4
2018-09-20T18:59:13.989Z,3.3
2018-09-20T19:02:13.675Z,3.2
2018-09-20T19:05:13.528Z,3.1
2018-09-20T19:08:13.500Z,3.1
2018-09-20T19:11:13.888Z,3.3
2018-09-20T19:14:13.718Z,3.5
2018-09-20T19:17:13.808Z,3.6
2018-09-20T19:20:13.410Z,4.3
2018-09-20T19:23:13.639Z,3.9
2018-09-20T19:26:13.677Z,3.6
2018-09-20T19:29:13.680Z,3.6
2018-09-20T19:32:13.602Z,3.5
2018-09-20T19:35:13.965Z,3.5
2018-09-20T19:38:13.704Z,4
2018-09-20T19:41:13.873Z,4
2018-09-20T19:44:14.487Z,3.8
2018-09-20T19:47:13.564Z,5.9
2018-09-20T19:50:13.734Z,5.2
2018-09-20T19:53:13.424Z,4.6
2018-09-20T19:56:13.506Z,4.7
2018-09-20T19:59:13.498Z,4.5
2018-09-20T20:02:13.421Z,4
2018-09-20T20:05:13.817Z,3.9
2018-09-20T20:08:13.576Z,4.5
2018-09-20T20:11:13.415Z,4.1
2018-09-20T20:14:13.553Z,4
2018-09-20T20:17:13.479Z,4
2018-09-20T20:20:13.613Z,4
2018-09-20T20:23:13.581Z,3.8
2018-09-20T20:26:14.566Z,3.6
2018-09-20T20:29:13.552Z,3.4
2018-09-20T20:32:14.186Z,3.2
2018-09-20T20:35:14.115Z,3.4
2018-09-20T20:38:15.262Z,3.3
2018-09-20T20:41:13.920Z,3.3
2018-09-20T20:44:13.813Z,3.2
2018-09-20T20:47:14.219Z,3.1
2018-09-20T20:50:14.018Z,3.2
2018-09-20T20:53:14.231Z,3.4
2018-09-20T20:56:13.950Z,3.3
2018-09-20T20:59:14.276Z,3.3
2018-09-20T21:02:14.206Z,3.3
2018-09-20T21:05:14.217Z,3.2
2018-09-20T21:08:14.155Z,3.1
2018-09-20T21:11:13.981Z,3.1
2018-09-20T21:14:14.384Z,3.3
2018-09-20T21:17:15.017Z,3.3
2018-09-20T21:20:13.937Z,3.3
2018-09-20T21:23:14.489Z,3.1
2018-09-20T21:26:14.116Z,3.2
2018-09-20T21:29:14.317Z,3.1
2018-09-20T21:32:14.109Z,3.3
2018-09-20T21:35:14.133Z,3.1
2018-09-20T21:38:13.777Z,3.1
2018-09-20T21:41:13.793Z,3.1
2018-09-20T21:44:14.182Z,3.1
2018-09-20T21:47:13.962Z,3.1
2018-09-20T21:50:13.929Z,3
2018-09-20T21:53:13.945Z,3
2018-09-20T21:56:13.875Z,3
2018-09-20T21:59:13.556Z,3.1
2018-09-20T22:02:13.484Z,3.2
2018-09-20T22:05:13.440Z,3.1
2018-09-20T22:08:13.806Z,3.1
2018-09-20T22:11:13.567Z,3.2
2018-09-20T22:14:13.629Z,3
2018-09-20T22:17:13.491Z,3
2018-09-20T22:20:13.424Z,3.2
2018-09-20T22:23:13.610Z,3.5
2018-09-20T22:26:13.486Z,3.1
2018-09-20T22:29:13.542Z,3.1
2018-09-20T22:32:13.338Z,3
2018-09-20T22:35:13.606Z,3.1
2018-09-20T22:38:13.520Z,3.1
2018-09-20T22:41:13.309Z,3.1
2018-09-20T22:44:13.604Z,3.2
2018-09-20T22:47:14.056Z,3.1
2018-09-20T22:50:13.829Z,3.2
2018-09-20T22:53:13.574Z,3
2018-09-20T22:56:13.349Z,2.9
2018-09-20T22:59:13.276Z,2.9
2018-09-20T23:02:13.384Z,2.8
2018-09-20T23:05:13.350Z,2.8
2018-09-20T23:08:13.483Z,2.9
2018-09-20T23:11:13.370Z,2.9
2018-09-20T23:14:13.300Z,3
2018-09-20T23:17:13.569Z,3
2018-09-20T23:20:13.402Z,2.9
2018-09-20T23:23:13.640Z,3
2018-09-20T23:26:13.458Z,3
2018-09-20T23:29:13.408Z,3.3
2018-09-20T23:32:13.331Z,3.1
2018-09-20T23:35:14.007Z,3
2018-09-20T23:38:13.507Z,2.9
2018-09-20T23:41:13.878Z,3
2018-09-20T23:44:13.546Z,3
2018-09-20T23:47:13.541Z,2.9
2018-09-20T23:50:13.741Z,2.9
2018-09-20T23:53:13.396Z,2.8
2018-09-20T23:56:13.480Z,3
2018-09-20T23:59:13.418Z,2.8
